Terminal Aerodrome Forecast
Issued by NWS Wakefield, VA

Home | Current Version | Previous Version | Text Only | Print | Product List | Glossary On
Versions: 1 2 3 4 5 6 7 8 9 10 11 12 13 14 15 16 17 18 19 20 21 22 23
520
FTUS41 KAKQ 192114 CCA
TAFECG
TAF COR
KECG 192114Z 1921/2018 08009KT P6SM VCSH SCT040 BKN080
      TEMPO 1921/1922 1SM +TSRA BR BKN035CB
     FM192200 08008KT P6SM SCT040 BKN250
     FM200100 18004KT P6SM SCT150
     FM200600 24004KT P6SM SKC
     FM200900 VRB03KT 5SM BR SKC
     FM201200 VRB03KT P6SM SCT150=

USA.gov is the U.S. government's official web portal to all federal, state and local government web resources and services.